sensor_id;sensor_type;location;lat;lon;timestamp;P1;durP1;ratioP1;P2;durP2;ratioP2
40471;SDS011;26174;42.908;23.800;2023-02-01T00:01:41;52.28;;;19.55;;
40471;SDS011;26174;42.908;23.800;2023-02-01T00:04:07;36.42;;;14.25;;
40471;SDS011;26174;42.908;23.800;2023-02-01T00:06:33;41.65;;;16.08;;
40471;SDS011;26174;42.908;23.800;2023-02-01T00:08:58;25.35;;;10.02;;
40471;SDS011;26174;42.908;23.800;2023-02-01T00:11:24;59.65;;;23.38;;
40471;SDS011;26174;42.908;23.800;2023-02-01T00:13:50;30.00;;;13.65;;
40471;SDS011;26174;42.908;23.800;2023-02-01T00:16:17;24.00;;;10.82;;
40471;SDS011;26174;42.908;23.800;2023-02-01T00:18:48;18.02;;;9.18;;
40471;SDS011;26174;42.908;23.800;2023-02-01T00:21:15;27.13;;;11.80;;
40471;SDS011;26174;42.908;23.800;2023-02-01T00:23:42;20.98;;;10.00;;
40471;SDS011;26174;42.908;23.800;2023-02-01T00:26:11;20.52;;;8.63;;
40471;SDS011;26174;42.908;23.800;2023-02-01T00:28:50;14.40;;;6.53;;
40471;SDS011;26174;42.908;23.800;2023-02-01T00:31:16;15.70;;;7.30;;
40471;SDS011;26174;42.908;23.800;2023-02-01T00:33:41;24.45;;;10.35;;
40471;SDS011;26174;42.908;23.800;2023-02-01T00:36:07;25.17;;;10.82;;
40471;SDS011;26174;42.908;23.800;2023-02-01T00:38:34;29.17;;;12.10;;
40471;SDS011;26174;42.908;23.800;2023-02-01T00:41:07;61.03;;;24.38;;
40471;SDS011;26174;42.908;23.800;2023-02-01T00:43:36;33.22;;;13.38;;
40471;SDS011;26174;42.908;23.800;2023-02-01T00:46:01;31.48;;;12.35;;
40471;SDS011;26174;42.908;23.800;2023-02-01T00:48:27;23.70;;;10.02;;
40471;SDS011;26174;42.908;23.800;2023-02-01T00:50:53;13.70;;;6.80;;
40471;SDS011;26174;42.908;23.800;2023-02-01T00:53:18;10.65;;;4.90;;
40471;SDS011;26174;42.908;23.800;2023-02-01T00:55:45;11.95;;;5.10;;
40471;SDS011;26174;42.908;23.800;2023-02-01T00:58:11;8.93;;;4.10;;
40471;SDS011;26174;42.908;23.800;2023-02-01T01:00:36;9.00;;;4.10;;
40471;SDS011;26174;42.908;23.800;2023-02-01T01:03:02;8.75;;;4.03;;
40471;SDS011;26174;42.908;23.800;2023-02-01T01:05:42;12.75;;;5.28;;
40471;SDS011;26174;42.908;23.800;2023-02-01T01:08:11;8.88;;;4.53;;
40471;SDS011;26174;42.908;23.800;2023-02-01T01:10:37;5.55;;;3.00;;
40471;SDS011;26174;42.908;23.800;2023-02-01T01:13:03;9.63;;;3.85;;
40471;SDS011;26174;42.908;23.800;2023-02-01T01:15:28;8.45;;;4.18;;
40471;SDS011;26174;42.908;23.800;2023-02-01T01:17:54;7.75;;;3.63;;
40471;SDS011;26174;42.908;23.800;2023-02-01T01:20:19;5.18;;;2.70;;
40471;SDS011;26174;42.908;23.800;2023-02-01T01:22:46;8.23;;;3.72;;
40471;SDS011;26174;42.908;23.800;2023-02-01T01:25:12;10.95;;;4.20;;
40471;SDS011;26174;42.908;23.800;2023-02-01T01:27:38;12.05;;;4.10;;
40471;SDS011;26174;42.908;23.800;2023-02-01T01:30:04;8.40;;;4.07;;
40471;SDS011;26174;42.908;23.800;2023-02-01T01:32:29;10.50;;;3.60;;
40471;SDS011;26174;42.908;23.800;2023-02-01T01:34:55;8.13;;;4.47;;
40471;SDS011;26174;42.908;23.800;2023-02-01T01:37:20;9.13;;;4.45;;
40471;SDS011;26174;42.908;23.800;2023-02-01T01:39:46;8.07;;;4.20;;
40471;SDS011;26174;42.908;23.800;2023-02-01T01:42:12;10.35;;;3.38;;
40471;SDS011;26174;42.908;23.800;2023-02-01T01:47:29;9.88;;;3.88;;
40471;SDS011;26174;42.908;23.800;2023-02-01T01:49:58;5.20;;;2.72;;
40471;SDS011;26174;42.908;23.800;2023-02-01T01:52:24;6.65;;;3.28;;
40471;SDS011;26174;42.908;23.800;2023-02-01T01:54:50;4.80;;;2.55;;
40471;SDS011;26174;42.908;23.800;2023-02-01T01:57:23;7.13;;;3.92;;
40471;SDS011;26174;42.908;23.800;2023-02-01T01:59:53;7.30;;;4.30;;
40471;SDS011;26174;42.908;23.800;2023-02-01T02:02:32;11.52;;;5.20;;
40471;SDS011;26174;42.908;23.800;2023-02-01T02:04:57;9.05;;;4.78;;
40471;SDS011;26174;42.908;23.800;2023-02-01T02:07:25;10.45;;;4.60;;
40471;SDS011;26174;42.908;23.800;2023-02-01T02:09:54;6.30;;;3.40;;
40471;SDS011;26174;42.908;23.800;2023-02-01T02:12:19;8.00;;;3.55;;
40471;SDS011;26174;42.908;23.800;2023-02-01T02:14:45;5.63;;;2.90;;
40471;SDS011;26174;42.908;23.800;2023-02-01T02:28:32;4.35;;;2.97;;
40471;SDS011;26174;42.908;23.800;2023-02-01T02:34:17;9.38;;;3.10;;
40471;SDS011;26174;42.908;23.800;2023-02-01T02:41:50;8.00;;;3.60;;
40471;SDS011;26174;42.908;23.800;2023-02-01T02:47:55;9.32;;;4.07;;
40471;SDS011;26174;42.908;23.800;2023-02-01T02:50:43;9.05;;;4.25;;
40471;SDS011;26174;42.908;23.800;2023-02-01T02:53:32;6.78;;;3.42;;
40471;SDS011;26174;42.908;23.800;2023-02-01T02:56:20;6.50;;;3.65;;
40471;SDS011;26174;42.908;23.800;2023-02-01T02:59:04;4.38;;;2.22;;
40471;SDS011;26174;42.908;23.800;2023-02-01T03:01:50;6.40;;;3.13;;
40471;SDS011;26174;42.908;23.800;2023-02-01T03:04:35;4.57;;;2.78;;
40471;SDS011;26174;42.908;23.800;2023-02-01T03:07:14;13.32;;;3.50;;
40471;SDS011;26174;42.908;23.800;2023-02-01T03:09:58;10.32;;;4.60;;
40471;SDS011;26174;42.908;23.800;2023-02-01T03:12:29;9.77;;;3.90;;
40471;SDS011;26174;42.908;23.800;2023-02-01T03:15:17;7.07;;;3.55;;
40471;SDS011;26174;42.908;23.800;2023-02-01T03:17:43;8.82;;;4.03;;
40471;SDS011;26174;42.908;23.800;2023-02-01T03:20:10;11.45;;;4.10;;
40471;SDS011;26174;42.908;23.800;2023-02-01T03:22:38;6.75;;;3.40;;
40471;SDS011;26174;42.908;23.800;2023-02-01T03:25:06;5.88;;;3.45;;
40471;SDS011;26174;42.908;23.800;2023-02-01T03:27:37;12.27;;;6.25;;
40471;SDS011;26174;42.908;23.800;2023-02-01T03:32:39;19.95;;;7.68;;
40471;SDS011;26174;42.908;23.800;2023-02-01T03:38:01;22.60;;;8.20;;
40471;SDS011;26174;42.908;23.800;2023-02-01T03:40:34;24.45;;;9.93;;
40471;SDS011;26174;42.908;23.800;2023-02-01T03:43:00;24.58;;;11.93;;
40471;SDS011;26174;42.908;23.800;2023-02-01T03:45:29;23.95;;;11.30;;
40471;SDS011;26174;42.908;23.800;2023-02-01T03:47:58;25.03;;;11.43;;
40471;SDS011;26174;42.908;23.800;2023-02-01T03:50:25;18.80;;;8.90;;
40471;SDS011;26174;42.908;23.800;2023-02-01T03:52:52;21.13;;;10.48;;
40471;SDS011;26174;42.908;23.800;2023-02-01T03:55:21;22.20;;;10.10;;
40471;SDS011;26174;42.908;23.800;2023-02-01T03:57:52;14.10;;;6.35;;
40471;SDS011;26174;42.908;23.800;2023-02-01T04:00:24;30.77;;;9.93;;
40471;SDS011;26174;42.908;23.800;2023-02-01T04:02:50;31.42;;;11.15;;
40471;SDS011;26174;42.908;23.800;2023-02-01T04:05:17;27.50;;;10.95;;
40471;SDS011;26174;42.908;23.800;2023-02-01T04:07:42;26.27;;;10.63;;
40471;SDS011;26174;42.908;23.800;2023-02-01T04:10:09;14.00;;;6.00;;
40471;SDS011;26174;42.908;23.800;2023-02-01T04:12:35;13.48;;;6.05;;
40471;SDS011;26174;42.908;23.800;2023-02-01T04:15:00;14.25;;;6.20;;
40471;SDS011;26174;42.908;23.800;2023-02-01T04:17:26;17.08;;;7.07;;
40471;SDS011;26174;42.908;23.800;2023-02-01T04:19:52;14.88;;;7.07;;
40471;SDS011;26174;42.908;23.800;2023-02-01T04:22:17;21.70;;;9.25;;
40471;SDS011;26174;42.908;23.800;2023-02-01T04:24:43;18.10;;;7.70;;
40471;SDS011;26174;42.908;23.800;2023-02-01T04:27:08;25.52;;;10.30;;
40471;SDS011;26174;42.908;23.800;2023-02-01T04:29:34;16.90;;;6.93;;
40471;SDS011;26174;42.908;23.800;2023-02-01T04:31:59;17.17;;;8.07;;
40471;SDS011;26174;42.908;23.800;2023-02-01T04:34:25;15.63;;;7.82;;
40471;SDS011;26174;42.908;23.800;2023-02-01T04:36:51;14.27;;;6.80;;
40471;SDS011;26174;42.908;23.800;2023-02-01T04:39:17;13.27;;;5.90;;
40471;SDS011;26174;42.908;23.800;2023-02-01T04:41:42;15.38;;;6.68;;
40471;SDS011;26174;42.908;23.800;2023-02-01T04:44:17;9.18;;;4.63;;
40471;SDS011;26174;42.908;23.800;2023-02-01T04:46:44;13.32;;;5.72;;
40471;SDS011;26174;42.908;23.800;2023-02-01T04:49:12;51.80;;;16.00;;
40471;SDS011;26174;42.908;23.800;2023-02-01T04:51:39;51.58;;;17.75;;
40471;SDS011;26174;42.908;23.800;2023-02-01T04:54:05;58.17;;;19.55;;
40471;SDS011;26174;42.908;23.800;2023-02-01T04:56:31;49.25;;;17.55;;
40471;SDS011;26174;42.908;23.800;2023-02-01T04:58:57;39.97;;;14.98;;
40471;SDS011;26174;42.908;23.800;2023-02-01T05:01:22;15.57;;;6.95;;
40471;SDS011;26174;42.908;23.800;2023-02-01T05:03:49;17.13;;;6.65;;
40471;SDS011;26174;42.908;23.800;2023-02-01T05:06:15;20.35;;;7.43;;
40471;SDS011;26174;42.908;23.800;2023-02-01T05:08:41;17.23;;;5.88;;
40471;SDS011;26174;42.908;23.800;2023-02-01T05:11:06;17.02;;;7.25;;
40471;SDS011;26174;42.908;23.800;2023-02-01T05:13:52;45.58;;;17.75;;
40471;SDS011;26174;42.908;23.800;2023-02-01T05:16:17;45.55;;;17.90;;
40471;SDS011;26174;42.908;23.800;2023-02-01T05:18:43;24.02;;;10.40;;
40471;SDS011;26174;42.908;23.800;2023-02-01T05:21:08;33.25;;;13.57;;
40471;SDS011;26174;42.908;23.800;2023-02-01T05:23:34;27.20;;;11.15;;
40471;SDS011;26174;42.908;23.800;2023-02-01T05:26:19;21.48;;;9.63;;
40471;SDS011;26174;42.908;23.800;2023-02-01T05:28:45;21.88;;;9.38;;
40471;SDS011;26174;42.908;23.800;2023-02-01T05:31:11;28.70;;;10.52;;
40471;SDS011;26174;42.908;23.800;2023-02-01T05:33:36;17.02;;;8.68;;
40471;SDS011;26174;42.908;23.800;2023-02-01T05:36:02;19.52;;;9.88;;
40471;SDS011;26174;42.908;23.800;2023-02-01T05:38:28;24.25;;;11.65;;
40471;SDS011;26174;42.908;23.800;2023-02-01T05:40:54;20.58;;;10.85;;
40471;SDS011;26174;42.908;23.800;2023-02-01T05:43:20;25.75;;;10.50;;
40471;SDS011;26174;42.908;23.800;2023-02-01T05:45:46;28.13;;;13.77;;
40471;SDS011;26174;42.908;23.800;2023-02-01T05:48:12;26.23;;;13.07;;
40471;SDS011;26174;42.908;23.800;2023-02-01T05:50:40;27.77;;;13.38;;
40471;SDS011;26174;42.908;23.800;2023-02-01T05:53:09;22.35;;;10.27;;
40471;SDS011;26174;42.908;23.800;2023-02-01T05:55:35;30.55;;;13.60;;
40471;SDS011;26174;42.908;23.800;2023-02-01T05:58:01;70.07;;;24.67;;
40471;SDS011;26174;42.908;23.800;2023-02-01T06:00:27;35.50;;;17.50;;
40471;SDS011;26174;42.908;23.800;2023-02-01T06:02:52;31.70;;;14.90;;
40471;SDS011;26174;42.908;23.800;2023-02-01T06:05:18;34.47;;;13.68;;
40471;SDS011;26174;42.908;23.800;2023-02-01T06:07:43;28.88;;;11.90;;
40471;SDS011;26174;42.908;23.800;2023-02-01T06:10:11;27.40;;;11.73;;
40471;SDS011;26174;42.908;23.800;2023-02-01T06:12:37;16.98;;;8.38;;
40471;SDS011;26174;42.908;23.800;2023-02-01T06:15:03;14.90;;;7.13;;
40471;SDS011;26174;42.908;23.800;2023-02-01T06:17:29;27.27;;;12.27;;
40471;SDS011;26174;42.908;23.800;2023-02-01T06:19:54;24.42;;;10.52;;
40471;SDS011;26174;42.908;23.800;2023-02-01T06:22:20;20.48;;;9.48;;
40471;SDS011;26174;42.908;23.800;2023-02-01T06:24:46;20.25;;;9.60;;
40471;SDS011;26174;42.908;23.800;2023-02-01T06:27:12;37.65;;;15.77;;
40471;SDS011;26174;42.908;23.800;2023-02-01T06:29:38;36.60;;;12.77;;
40471;SDS011;26174;42.908;23.800;2023-02-01T06:32:03;40.22;;;15.05;;
40471;SDS011;26174;42.908;23.800;2023-02-01T06:34:29;37.63;;;16.77;;
40471;SDS011;26174;42.908;23.800;2023-02-01T06:36:55;52.25;;;21.08;;
40471;SDS011;26174;42.908;23.800;2023-02-01T06:39:20;99.32;;;36.33;;
40471;SDS011;26174;42.908;23.800;2023-02-01T06:41:47;81.22;;;34.92;;
40471;SDS011;26174;42.908;23.800;2023-02-01T06:44:16;36.88;;;16.42;;
40471;SDS011;26174;42.908;23.800;2023-02-01T06:46:45;39.42;;;18.02;;
40471;SDS011;26174;42.908;23.800;2023-02-01T06:49:11;64.32;;;18.80;;
40471;SDS011;26174;42.908;23.800;2023-02-01T06:51:37;36.00;;;18.50;;
40471;SDS011;26174;42.908;23.800;2023-02-01T06:54:02;38.40;;;17.92;;
40471;SDS011;26174;42.908;23.800;2023-02-01T06:56:34;36.10;;;16.67;;
40471;SDS011;26174;42.908;23.800;2023-02-01T06:58:59;66.53;;;26.63;;
40471;SDS011;26174;42.908;23.800;2023-02-01T07:01:27;68.90;;;27.77;;
40471;SDS011;26174;42.908;23.800;2023-02-01T07:03:52;64.55;;;28.25;;
40471;SDS011;26174;42.908;23.800;2023-02-01T07:06:18;56.38;;;24.63;;
40471;SDS011;26174;42.908;23.800;2023-02-01T07:08:44;63.10;;;27.85;;
40471;SDS011;26174;42.908;23.800;2023-02-01T07:11:11;101.28;;;43.25;;
40471;SDS011;26174;42.908;23.800;2023-02-01T07:13:38;92.38;;;39.33;;
40471;SDS011;26174;42.908;23.800;2023-02-01T07:16:05;89.80;;;36.38;;
40471;SDS011;26174;42.908;23.800;2023-02-01T07:18:32;80.50;;;35.22;;
40471;SDS011;26174;42.908;23.800;2023-02-01T07:20:58;90.45;;;38.08;;
40471;SDS011;26174;42.908;23.800;2023-02-01T07:23:24;83.00;;;37.35;;
40471;SDS011;26174;42.908;23.800;2023-02-01T07:25:57;101.28;;;40.78;;
40471;SDS011;26174;42.908;23.800;2023-02-01T07:28:24;106.82;;;39.85;;
40471;SDS011;26174;42.908;23.800;2023-02-01T07:30:50;76.93;;;32.03;;
40471;SDS011;26174;42.908;23.800;2023-02-01T07:33:25;54.80;;;23.55;;
40471;SDS011;26174;42.908;23.800;2023-02-01T07:35:51;46.20;;;20.30;;
40471;SDS011;26174;42.908;23.800;2023-02-01T07:38:17;31.60;;;15.10;;
40471;SDS011;26174;42.908;23.800;2023-02-01T07:40:43;28.85;;;13.60;;
40471;SDS011;26174;42.908;23.800;2023-02-01T07:43:09;18.65;;;9.05;;
40471;SDS011;26174;42.908;23.800;2023-02-01T07:45:35;44.13;;;17.88;;
40471;SDS011;26174;42.908;23.800;2023-02-01T07:48:01;35.58;;;15.95;;
40471;SDS011;26174;42.908;23.800;2023-02-01T07:50:27;34.80;;;15.90;;
40471;SDS011;26174;42.908;23.800;2023-02-01T07:52:52;28.00;;;13.18;;
40471;SDS011;26174;42.908;23.800;2023-02-01T07:55:19;36.13;;;17.55;;
40471;SDS011;26174;42.908;23.800;2023-02-01T07:57:45;73.70;;;30.92;;
40471;SDS011;26174;42.908;23.800;2023-02-01T08:00:11;35.10;;;16.17;;
40471;SDS011;26174;42.908;23.800;2023-02-01T08:02:59;41.90;;;16.15;;
40471;SDS011;26174;42.908;23.800;2023-02-01T08:05:24;27.52;;;11.98;;
40471;SDS011;26174;42.908;23.800;2023-02-01T08:07:50;28.95;;;14.48;;
40471;SDS011;26174;42.908;23.800;2023-02-01T08:10:16;27.52;;;13.55;;
40471;SDS011;26174;42.908;23.800;2023-02-01T08:12:43;35.45;;;16.30;;
40471;SDS011;26174;42.908;23.800;2023-02-01T08:15:12;28.27;;;12.35;;
40471;SDS011;26174;42.908;23.800;2023-02-01T08:17:39;24.83;;;11.23;;
40471;SDS011;26174;42.908;23.800;2023-02-01T08:20:05;36.13;;;16.58;;
40471;SDS011;26174;42.908;23.800;2023-02-01T08:22:31;35.15;;;15.93;;
40471;SDS011;26174;42.908;23.800;2023-02-01T08:24:57;14.02;;;6.32;;
40471;SDS011;26174;42.908;23.800;2023-02-01T08:27:26;14.90;;;6.60;;
40471;SDS011;26174;42.908;23.800;2023-02-01T08:29:52;33.92;;;15.30;;
40471;SDS011;26174;42.908;23.800;2023-02-01T08:32:19;17.48;;;8.73;;
40471;SDS011;26174;42.908;23.800;2023-02-01T08:34:44;17.10;;;8.70;;
40471;SDS011;26174;42.908;23.800;2023-02-01T08:37:10;30.35;;;12.35;;
40471;SDS011;26174;42.908;23.800;2023-02-01T08:39:35;14.77;;;6.05;;
40471;SDS011;26174;42.908;23.800;2023-02-01T08:42:01;11.88;;;5.70;;
40471;SDS011;26174;42.908;23.800;2023-02-01T08:44:51;17.83;;;5.95;;
40471;SDS011;26174;42.908;23.800;2023-02-01T08:47:20;9.52;;;5.30;;
40471;SDS011;26174;42.908;23.800;2023-02-01T08:49:45;11.90;;;5.43;;
40471;SDS011;26174;42.908;23.800;2023-02-01T08:52:11;12.77;;;5.70;;
40471;SDS011;26174;42.908;23.800;2023-02-01T08:54:37;11.40;;;5.55;;
40471;SDS011;26174;42.908;23.800;2023-02-01T08:57:04;9.20;;;5.25;;
40471;SDS011;26174;42.908;23.800;2023-02-01T08:59:30;10.77;;;5.63;;
40471;SDS011;26174;42.908;23.800;2023-02-01T09:01:55;8.82;;;4.10;;
40471;SDS011;26174;42.908;23.800;2023-02-01T09:04:21;9.35;;;4.85;;
40471;SDS011;26174;42.908;23.800;2023-02-01T09:06:47;11.52;;;5.10;;
40471;SDS011;26174;42.908;23.800;2023-02-01T09:09:12;11.23;;;5.05;;
40471;SDS011;26174;42.908;23.800;2023-02-01T09:11:38;12.38;;;5.80;;
40471;SDS011;26174;42.908;23.800;2023-02-01T09:14:03;11.38;;;6.13;;
40471;SDS011;26174;42.908;23.800;2023-02-01T09:16:29;19.83;;;9.07;;
40471;SDS011;26174;42.908;23.800;2023-02-01T09:18:57;16.98;;;6.32;;
40471;SDS011;26174;42.908;23.800;2023-02-01T09:21:22;14.32;;;7.55;;
40471;SDS011;26174;42.908;23.800;2023-02-01T09:23:48;17.15;;;7.40;;
40471;SDS011;26174;42.908;23.800;2023-02-01T09:26:16;14.50;;;5.90;;
40471;SDS011;26174;42.908;23.800;2023-02-01T09:28:41;16.27;;;7.72;;
40471;SDS011;26174;42.908;23.800;2023-02-01T09:31:07;18.80;;;8.00;;
40471;SDS011;26174;42.908;23.800;2023-02-01T09:33:32;16.23;;;8.15;;
40471;SDS011;26174;42.908;23.800;2023-02-01T09:35:59;17.08;;;7.40;;
40471;SDS011;26174;42.908;23.800;2023-02-01T09:38:25;31.38;;;15.20;;
40471;SDS011;26174;42.908;23.800;2023-02-01T09:40:52;13.52;;;6.55;;
40471;SDS011;26174;42.908;23.800;2023-02-01T09:44:02;11.68;;;6.28;;
40471;SDS011;26174;42.908;23.800;2023-02-01T09:48:56;21.38;;;10.13;;
40471;SDS011;26174;42.908;23.800;2023-02-01T09:51:30;18.77;;;8.35;;
40471;SDS011;26174;42.908;23.800;2023-02-01T09:54:00;11.90;;;5.63;;
40471;SDS011;26174;42.908;23.800;2023-02-01T10:01:40;10.87;;;5.97;;
40471;SDS011;26174;42.908;23.800;2023-02-01T10:04:08;18.33;;;7.45;;
40471;SDS011;26174;42.908;23.800;2023-02-01T10:27:49;9.33;;;4.33;;
40471;SDS011;26174;42.908;23.800;2023-02-01T10:30:19;8.43;;;4.32;;
40471;SDS011;26174;42.908;23.800;2023-02-01T10:32:48;8.65;;;3.50;;
40471;SDS011;26174;42.908;23.800;2023-02-01T10:35:27;12.23;;;6.22;;
40471;SDS011;26174;42.908;23.800;2023-02-01T10:37:54;18.38;;;5.38;;
40471;SDS011;26174;42.908;23.800;2023-02-01T10:40:22;15.60;;;5.40;;
40471;SDS011;26174;42.908;23.800;2023-02-01T10:43:07;10.05;;;4.60;;
40471;SDS011;26174;42.908;23.800;2023-02-01T10:45:33;19.35;;;8.05;;
40471;SDS011;26174;42.908;23.800;2023-02-01T10:47:59;26.90;;;9.65;;
40471;SDS011;26174;42.908;23.800;2023-02-01T10:53:17;13.82;;;6.32;;
40471;SDS011;26174;42.908;23.800;2023-02-01T10:58:15;10.77;;;5.55;;
40471;SDS011;26174;42.908;23.800;2023-02-01T11:00:46;19.50;;;7.32;;
40471;SDS011;26174;42.908;23.800;2023-02-01T11:04:09;13.75;;;6.97;;
40471;SDS011;26174;42.908;23.800;2023-02-01T11:08:52;17.60;;;8.73;;
40471;SDS011;26174;42.908;23.800;2023-02-01T11:11:19;15.00;;;6.40;;
40471;SDS011;26174;42.908;23.800;2023-02-01T11:13:51;14.48;;;7.20;;
40471;SDS011;26174;42.908;23.800;2023-02-01T11:16:19;16.67;;;8.15;;
40471;SDS011;26174;42.908;23.800;2023-02-01T11:18:52;15.07;;;5.53;;
40471;SDS011;26174;42.908;23.800;2023-02-01T11:21:19;11.45;;;4.90;;
40471;SDS011;26174;42.908;23.800;2023-02-01T11:23:45;8.57;;;4.82;;
40471;SDS011;26174;42.908;23.800;2023-02-01T11:28:39;7.35;;;4.95;;
40471;SDS011;26174;42.908;23.800;2023-02-01T11:31:07;11.00;;;5.65;;
40471;SDS011;26174;42.908;23.800;2023-02-01T11:33:35;7.72;;;4.80;;
40471;SDS011;26174;42.908;23.800;2023-02-01T11:36:07;11.25;;;5.72;;
40471;SDS011;26174;42.908;23.800;2023-02-01T11:38:33;12.30;;;4.97;;
40471;SDS011;26174;42.908;23.800;2023-02-01T11:41:20;12.63;;;5.55;;
40471;SDS011;26174;42.908;23.800;2023-02-01T11:43:52;10.80;;;5.15;;
40471;SDS011;26174;42.908;23.800;2023-02-01T11:46:31;13.18;;;6.57;;
40471;SDS011;26174;42.908;23.800;2023-02-01T11:49:12;10.02;;;4.85;;
40471;SDS011;26174;42.908;23.800;2023-02-01T12:07:50;11.18;;;5.68;;
40471;SDS011;26174;42.908;23.800;2023-02-01T12:11:05;4.38;;;2.83;;
40471;SDS011;26174;42.908;23.800;2023-02-01T12:21:22;9.48;;;3.97;;
40471;SDS011;26174;42.908;23.800;2023-02-01T12:32:05;7.47;;;3.78;;
40471;SDS011;26174;42.908;23.800;2023-02-01T12:42:26;6.75;;;3.85;;
40471;SDS011;26174;42.908;23.800;2023-02-01T12:45:12;10.25;;;4.57;;
40471;SDS011;26174;42.908;23.800;2023-02-01T12:47:43;7.65;;;3.53;;
40471;SDS011;26174;42.908;23.800;2023-02-01T12:52:51;6.72;;;4.07;;
40471;SDS011;26174;42.908;23.800;2023-02-01T12:55:26;9.20;;;4.03;;
40471;SDS011;26174;42.908;23.800;2023-02-01T13:01:11;9.00;;;4.97;;
40471;SDS011;26174;42.908;23.800;2023-02-01T13:06:41;17.38;;;7.38;;
40471;SDS011;26174;42.908;23.800;2023-02-01T13:11:45;11.70;;;5.27;;
40471;SDS011;26174;42.908;23.800;2023-02-01T13:17:05;11.32;;;4.80;;
40471;SDS011;26174;42.908;23.800;2023-02-01T13:24:56;10.95;;;5.55;;
40471;SDS011;26174;42.908;23.800;2023-02-01T13:27:26;11.52;;;6.03;;
40471;SDS011;26174;42.908;23.800;2023-02-01T13:29:56;5.38;;;3.20;;
40471;SDS011;26174;42.908;23.800;2023-02-01T13:32:34;10.55;;;5.13;;
40471;SDS011;26174;42.908;23.800;2023-02-01T13:43:24;11.88;;;6.13;;
40471;SDS011;26174;42.908;23.800;2023-02-01T13:45:53;6.22;;;3.55;;
40471;SDS011;26174;42.908;23.800;2023-02-01T13:48:24;5.63;;;3.45;;
40471;SDS011;26174;42.908;23.800;2023-02-01T13:51:11;8.02;;;3.67;;
40471;SDS011;26174;42.908;23.800;2023-02-01T13:53:37;9.23;;;5.15;;
40471;SDS011;26174;42.908;23.800;2023-02-01T13:58:42;10.32;;;5.28;;
40471;SDS011;26174;42.908;23.800;2023-02-01T14:04:00;9.52;;;5.10;;
40471;SDS011;26174;42.908;23.800;2023-02-01T14:19:08;16.15;;;7.72;;
40471;SDS011;26174;42.908;23.800;2023-02-01T14:24:25;29.48;;;12.35;;
40471;SDS011;26174;42.908;23.800;2023-02-01T14:29:39;31.00;;;10.88;;
40471;SDS011;26174;42.908;23.800;2023-02-01T14:32:16;19.40;;;9.25;;
40471;SDS011;26174;42.908;23.800;2023-02-01T14:37:21;34.53;;;15.88;;
40471;SDS011;26174;42.908;23.800;2023-02-01T14:47:49;12.57;;;5.63;;
40471;SDS011;26174;42.908;23.800;2023-02-01T14:53:10;9.35;;;5.13;;
40471;SDS011;26174;42.908;23.800;2023-02-01T14:55:39;9.40;;;3.67;;
40471;SDS011;26174;42.908;23.800;2023-02-01T15:00:54;9.27;;;5.43;;
40471;SDS011;26174;42.908;23.800;2023-02-01T15:06:27;8.90;;;4.45;;
40471;SDS011;26174;42.908;23.800;2023-02-01T15:08:57;7.88;;;3.70;;
40471;SDS011;26174;42.908;23.800;2023-02-01T15:11:28;16.17;;;6.28;;
40471;SDS011;26174;42.908;23.800;2023-02-01T15:13:54;40.47;;;17.20;;
40471;SDS011;26174;42.908;23.800;2023-02-01T15:16:22;28.75;;;10.35;;
40471;SDS011;26174;42.908;23.800;2023-02-01T15:19:06;21.55;;;8.75;;
40471;SDS011;26174;42.908;23.800;2023-02-01T15:21:42;24.38;;;10.02;;
40471;SDS011;26174;42.908;23.800;2023-02-01T15:24:29;21.90;;;10.52;;
40471;SDS011;26174;42.908;23.800;2023-02-01T15:26:58;36.53;;;17.27;;
40471;SDS011;26174;42.908;23.800;2023-02-01T15:29:28;31.60;;;15.95;;
40471;SDS011;26174;42.908;23.800;2023-02-01T15:31:57;28.83;;;13.73;;
40471;SDS011;26174;42.908;23.800;2023-02-01T15:34:23;31.55;;;12.85;;
40471;SDS011;26174;42.908;23.800;2023-02-01T15:37:13;41.05;;;16.65;;
40471;SDS011;26174;42.908;23.800;2023-02-01T15:40:51;32.55;;;13.13;;
40471;SDS011;26174;42.908;23.800;2023-02-01T15:43:02;23.67;;;10.10;;
40471;SDS011;26174;42.908;23.800;2023-02-01T15:45:29;23.42;;;10.20;;
40471;SDS011;26174;42.908;23.800;2023-02-01T15:47:56;37.75;;;15.48;;
40471;SDS011;26174;42.908;23.800;2023-02-01T15:50:27;49.47;;;20.38;;
40471;SDS011;26174;42.908;23.800;2023-02-01T15:52:57;68.28;;;26.67;;
40471;SDS011;26174;42.908;23.800;2023-02-01T15:57:58;36.85;;;14.57;;
40471;SDS011;26174;42.908;23.800;2023-02-01T16:00:28;53.70;;;20.08;;
40471;SDS011;26174;42.908;23.800;2023-02-01T16:02:59;41.70;;;18.48;;
40471;SDS011;26174;42.908;23.800;2023-02-01T16:13:34;44.70;;;19.67;;
40471;SDS011;26174;42.908;23.800;2023-02-01T16:16:00;40.95;;;18.73;;
40471;SDS011;26174;42.908;23.800;2023-02-01T16:18:26;35.72;;;17.90;;
40471;SDS011;26174;42.908;23.800;2023-02-01T16:20:52;39.47;;;17.85;;
40471;SDS011;26174;42.908;23.800;2023-02-01T16:23:17;41.17;;;19.27;;
40471;SDS011;26174;42.908;23.800;2023-02-01T16:25:45;48.55;;;21.27;;
40471;SDS011;26174;42.908;23.800;2023-02-01T16:28:11;47.42;;;22.05;;
40471;SDS011;26174;42.908;23.800;2023-02-01T16:30:36;49.25;;;22.50;;
40471;SDS011;26174;42.908;23.800;2023-02-01T16:33:02;41.70;;;20.23;;
40471;SDS011;26174;42.908;23.800;2023-02-01T16:35:34;45.13;;;20.80;;
40471;SDS011;26174;42.908;23.800;2023-02-01T16:38:02;42.92;;;20.23;;
40471;SDS011;26174;42.908;23.800;2023-02-01T16:40:33;55.85;;;23.48;;
40471;SDS011;26174;42.908;23.800;2023-02-01T16:42:59;35.83;;;15.93;;
40471;SDS011;26174;42.908;23.800;2023-02-01T16:45:25;22.05;;;10.65;;
40471;SDS011;26174;42.908;23.800;2023-02-01T16:47:52;22.23;;;8.18;;
40471;SDS011;26174;42.908;23.800;2023-02-01T16:50:23;21.35;;;9.25;;
40471;SDS011;26174;42.908;23.800;2023-02-01T16:52:50;20.10;;;9.07;;
40471;SDS011;26174;42.908;23.800;2023-02-01T16:55:17;11.90;;;4.57;;
40471;SDS011;26174;42.908;23.800;2023-02-01T16:57:44;12.25;;;4.30;;
40471;SDS011;26174;42.908;23.800;2023-02-01T17:00:10;32.45;;;13.85;;
40471;SDS011;26174;42.908;23.800;2023-02-01T17:02:37;21.60;;;9.13;;
40471;SDS011;26174;42.908;23.800;2023-02-01T17:05:03;38.97;;;16.77;;
40471;SDS011;26174;42.908;23.800;2023-02-01T17:07:29;27.25;;;13.18;;
40471;SDS011;26174;42.908;23.800;2023-02-01T17:09:55;46.33;;;17.58;;
40471;SDS011;26174;42.908;23.800;2023-02-01T17:14:50;49.45;;;22.35;;
40471;SDS011;26174;42.908;23.800;2023-02-01T17:17:16;45.15;;;19.95;;
40471;SDS011;26174;42.908;23.800;2023-02-01T17:19:44;15.15;;;8.00;;
40471;SDS011;26174;42.908;23.800;2023-02-01T17:22:12;13.80;;;5.88;;
40471;SDS011;26174;42.908;23.800;2023-02-01T17:24:38;22.45;;;5.97;;
40471;SDS011;26174;42.908;23.800;2023-02-01T17:27:04;13.50;;;6.20;;
40471;SDS011;26174;42.908;23.800;2023-02-01T17:29:30;14.63;;;6.28;;
40471;SDS011;26174;42.908;23.800;2023-02-01T17:31:55;17.27;;;6.50;;
40471;SDS011;26174;42.908;23.800;2023-02-01T17:34:24;13.02;;;7.03;;
40471;SDS011;26174;42.908;23.800;2023-02-01T17:36:49;24.33;;;11.18;;
40471;SDS011;26174;42.908;23.800;2023-02-01T17:39:15;39.95;;;19.08;;
40471;SDS011;26174;42.908;23.800;2023-02-01T17:42:00;41.97;;;17.83;;
40471;SDS011;26174;42.908;23.800;2023-02-01T17:44:26;26.15;;;12.13;;